Latest Weather Observations for Paraburdoo

IDW60801

Issued at 8:13 am WST Monday 18 October 2021 (issued every 10 minutes, with the page automatically refreshed every 10 minutes)

About weather observations | Map of weather stations | Latest weather observations for WA | Other Formats
Station Details ID: 007185 Name: PARABURDOO AERO Lat: -23.17 Lon: 117.75 Height: 423.7 m
Data from the previous 72 hours. | See also: Recent months at Paraburdoo
Date/Time
WST
Temp
°C
App
Temp
°C
Dew
Point
°C
Rel
Hum
%
Delta-T
°C
Wind Press
QNH
hPa
Press
MSL
hPa
Rain since
9am
mm
Dir  Spd
km/h
Gust
km/h
Spd
kts
Gust
kts
18/08:00am 22.1 19.8 10.6 48 6.4 WNW 13 19 7 10 1012.7 1010.0 0.0
18/07:30am 21.3 18.6 10.5 50 6.0 W 15 20 8 11 1012.5 1009.8 0.0
18/07:00am 20.6 17.5 10.4 52 5.7 WNW 17 22 9 12 1012.5 1009.8 0.0
18/06:48am 20.6 18.4 10.7 53 5.5 WNW 13 19 7 10 1012.4 1009.7 0.0
18/06:47am 20.3 18.0 10.4 53 5.5 WNW 13 19 7 10 1012.3 1009.6 0.0
18/06:34am 20.0 17.7 10.4 54 5.3 WNW 13 15 7 8 1012.2 1009.5 0.0
18/06:30am 20.0 17.7 10.4 54 5.3 W 13 15 7 8 1012.2 1009.5 0.0
18/06:00am 19.3 17.3 10.3 56 4.9 W 11 15 6 8 1011.9 1009.2 0.0
18/05:30am 18.6 16.2 8.8 53 5.2 WSW 11 13 6 7 1011.4 1008.6 0.0
18/05:00am 17.4 15.2 6.0 47 5.7 WSW 7 11 4 6 1010.9 1008.2 0.0
18/04:30am 20.0 17.9 8.4 47 6.2 WSW 9 11 5 6 1010.5 1007.8 0.0
18/04:00am 19.9 17.2 7.3 44 6.6 W 11 13 6 7 1010.2 1007.5 0.0
18/03:30am 20.5 17.4 7.2 42 6.9 WSW 13 15 7 8 1009.9 1007.2 0.0
18/03:00am 21.9 18.7 7.0 38 7.8 WSW 13 17 7 9 1009.8 1007.1 0.0
18/02:43am 22.1 18.6 5.5 34 8.5 W 13 20 7 11 1009.7 1007.0 0.0
18/02:30am 22.6 19.8 5.1 32 8.9 W 9 17 5 9 1009.6 1006.9 0.0
18/02:04am 22.9 19.9 3.9 29 9.5 NW 9 17 5 9 1009.6 1006.9 0.0
18/02:03am 23.0 20.1 4.5 30 9.3 NW 9 17 5 9 1009.6 1006.9 0.0
18/02:00am 22.6 19.4 3.2 28 9.5 NW 9 13 5 7 1009.6 1006.9 0.0
18/01:51am 22.8 19.7 3.4 28 9.6 NW 9 15 5 8 1009.6 1006.9 0.0
18/01:30am 23.0 19.9 3.5 28 9.6 WNW 9 11 5 6 1009.8 1007.1 0.0
18/01:00am 23.0 20.1 2.5 26 10.0 NW 7 11 4 6 1009.9 1007.2 0.0
18/12:51am 23.2 20.2 2.1 25 10.2 NW 7 9 4 5 1010.0 1007.3 0.0
18/12:30am 24.0 20.6 1.6 23 10.8 WNW 9 13 5 7 1010.0 1007.3 0.0
18/12:00am 23.8 20.3 1.4 23 10.7 WNW 9 13 5 7 1010.2 1007.5 0.0
 
Date/Time
WST
Temp
°C
App
Temp
°C
Dew
Point
°C
Rel
Hum
%
Delta-T
°C
Wind Press
QNH
hPa
Press
MSL
hPa
Rain since
9am
mm
Dir  Spd
km/h
Gust
km/h
Spd
kts
Gust
kts
17/11:30pm 24.2 20.7 1.2 22 11.0 WNW 9 13 5 7 1010.3 1007.6 0.0
17/11:00pm 24.3 20.4 1.2 22 11.1 NW 11 15 6 8 1010.4 1007.7 0.0
17/10:30pm 25.4 22.3 1.5 21 11.6 NW 7 9 4 5 1010.4 1007.7 0.0
17/10:00pm 26.3 22.1 1.6 20 12.1 W 13 15 7 8 1010.3 1007.6 0.0
17/09:30pm 26.8 22.2 1.3 19 12.4 W 15 22 8 12 1010.1 1007.4 0.0
17/09:00pm 27.5 23.2 1.1 18 12.9 W 13 19 7 10 1010.0 1007.3 0.0
17/08:30pm 28.5 22.9 1.1 17 13.5 W 20 28 11 15 1009.7 1007.0 0.0
17/08:00pm 29.3 22.4 0.0 15 14.2 W 26 33 14 18 1009.4 1006.7 0.0
17/07:30pm 29.8 23.6 -0.5 14 14.6 W 22 30 12 16 1008.9 1006.1 0.0
17/07:00pm 30.7 25.0 -0.8 13 15.2 WNW 19 26 10 14 1008.3 1005.6 0.0
17/06:30pm 31.9 24.7 -2.2 11 16.2 NW 26 32 14 17 1007.7 1005.0 0.0
17/06:00pm 32.6 25.4 -1.7 11 16.6 NW 26 37 14 20 1007.4 1004.7 0.0
17/05:30pm 33.5 26.6 -2.3 10 17.2 NW 24 37 13 20 1007.0 1004.2 0.0
17/05:00pm 34.3 27.1 -1.7 10 17.6 WNW 26 39 14 21 1006.9 1004.1 0.0
17/04:30pm 34.3 27.1 -1.7 10 17.5 NW 26 39 14 21 1006.8 1004.0 0.0
17/04:00pm 34.9 27.4 -1.2 10 17.9 NW 28 41 15 22 1006.9 1004.1 0.0
17/03:30pm 34.6 27.1 -1.4 10 17.7 NW 28 46 15 25 1007.0 1004.2 0.0
17/03:28pm 35.6 28.2 -0.7 10 18.1 NW 28 46 15 25 1007.0 1004.2 0.0
17/03:00pm 35.7 28.7 -0.6 10 18.2 WNW 26 39 14 21 1007.2 1004.4 0.0
17/02:30pm 34.8 26.6 -1.3 10 17.8 NW 32 48 17 26 1007.6 1004.9 0.0
17/02:00pm 35.6 27.4 -0.7 10 18.2 WNW 32 52 17 28 1007.8 1005.1 0.0
17/01:33pm 35.6 28.0 0.6 11 17.8 NNW 30 50 16 27 1008.0 1005.3 0.0
17/01:30pm 34.4 27.2 0.9 12 17.0 NNW 28 39 15 21 1008.1 1005.4 0.0
17/01:00pm 34.2 27.0 0.8 12 17.0 NW 28 46 15 25 1008.4 1005.7 0.0
17/12:34pm 34.2 27.0 0.8 12 16.9 NW 28 46 15 25 1009.0 1006.2 0.0
17/12:30pm 34.1 26.0 0.7 12 16.9 NW 33 46 18 25 1009.2 1006.4 0.0
17/12:00pm 33.6 26.1 1.4 13 16.5 NW 30 48 16 26 1009.7 1007.0 0.0
17/11:34am 33.9 26.8 1.6 13 16.6 WNW 28 50 15 27 1010.1 1007.4 0.0
17/11:30am 33.1 25.9 1.0 13 16.2 NW 28 41 15 22 1010.2 1007.5 0.0
17/11:22am 33.3 25.8 1.2 13 16.3 NW 30 48 16 26 1010.4 1007.7 0.0
17/11:00am 33.5 26.8 1.3 13 16.4 NW 26 43 14 23 1010.6 1007.9 0.0
17/10:56am 33.2 25.8 2.1 14 16.0 NW 30 48 16 26 1010.7 1008.0 0.0
17/10:30am 32.2 24.9 0.3 13 15.8 NW 28 41 15 22 1011.0 1008.3 0.0
17/10:00am 32.7 26.8 1.7 14 15.8 NNW 22 37 12 20 1011.2 1008.4 0.0
17/09:30am 30.4 24.9 1.8 16 14.4 NW 20 32 11 17 1011.6 1008.9 0.0
17/09:00am 30.4 27.0 1.8 16 14.4 N 9 17 5 9 1011.6 1008.9 0.0
17/08:30am 29.0 24.8 1.5 17 13.7 NNE 13 17 7 9 1011.5 1008.7 0.0
17/08:00am 27.9 23.0 2.2 19 12.8 NE 17 20 9 11 1011.5 1008.7 0.0
17/07:30am 26.8 21.8 1.3 19 12.4 NE 17 24 9 13 1011.2 1008.4 0.0
17/07:00am 24.0 20.4 2.8 25 10.4 NNE 11 15 6 8 1011.3 1008.5 0.0
17/06:30am 21.0 17.8 2.8 30 8.8 NNE 9 13 5 7 1011.0 1008.3 0.0
17/06:00am 18.2 15.5 2.5 35 7.4 NE 6 9 3 5 1010.7 1008.0 0.0
17/05:30am 18.4 14.8 2.7 35 7.4 NNE 11 15 6 8 1010.5 1007.8 0.0
17/05:00am 17.5 13.8 2.3 36 7.1 NE 11 13 6 7 1010.3 1007.6 0.0
17/04:30am 17.3 14.0 2.5 37 6.9 ENE 9 11 5 6 1010.2 1007.5 0.0
17/04:00am 17.2 13.8 1.6 35 7.1 NE 9 13 5 7 1010.0 1007.3 0.0
17/03:30am 17.8 14.5 2.5 36 7.1 ENE 9 11 5 6 1009.9 1007.2 0.0
17/03:00am 17.2 14.1 1.6 35 7.1 ENE 7 9 4 5 1009.8 1007.1 0.0
17/02:30am 18.4 15.5 1.4 32 7.8 NNE 6 9 3 5 1009.9 1007.2 0.0
17/02:00am 19.5 16.2 2.4 32 8.1 NNE 9 9 5 5 1010.0 1007.3 0.0
17/01:30am 20.0 16.7 2.4 31 8.3 NE 9 13 5 7 1010.2 1007.5 0.0
17/01:00am 19.1 17.4 1.6 31 8.1 CALM 0 0 0 0 1010.4 1007.7 0.0
17/12:30am 20.1 18.4 2.0 30 8.5 CALM 0 0 0 0 1010.4 1007.7 0.0
17/12:00am 21.2 19.4 3.4 31 8.7 ESE 2 6 1 3 1010.6 1007.9 0.0
 
Date/Time
WST
Temp
°C
App
Temp
°C
Dew
Point
°C
Rel
Hum
%
Delta-T
°C
Wind Press
QNH
hPa
Press
MSL
hPa
Rain since
9am
mm
Dir  Spd
km/h
Gust
km/h
Spd
kts
Gust
kts
16/11:30pm 22.2 19.6 3.3 29 9.3 ESE 6 6 3 3 1010.7 1008.0 0.0
16/11:00pm 24.0 21.0 3.9 27 10.1 NW 9 11 5 6 1010.9 1008.2 0.0
16/10:30pm 24.5 21.8 2.6 24 10.8 WSW 6 7 3 4 1011.0 1008.3 0.0
16/10:00pm 24.4 22.9 3.1 25 10.6 CALM 0 0 0 0 1010.9 1008.2 0.0
16/09:30pm 25.2 22.5 3.8 25 10.8 SSW 7 9 4 5 1010.9 1008.2 0.0
16/09:00pm 27.9 24.2 4.2 22 12.3 W 13 15 7 8 1010.7 1008.0 0.0
16/08:30pm 28.3 24.2 4.6 22 12.4 W 15 17 8 9 1010.6 1007.9 0.0
16/08:00pm 29.0 24.6 4.5 21 12.8 WSW 17 20 9 11 1010.6 1007.9 0.0
16/07:30pm 29.6 25.1 4.3 20 13.2 W 17 24 9 13 1010.3 1007.6 0.0
16/07:00pm 30.1 24.6 4.0 19 13.6 W 22 26 12 14 1010.0 1007.3 0.0
16/06:30pm 30.7 24.5 4.4 19 13.9 WSW 26 32 14 17 1009.5 1006.8 0.0
16/06:00pm 31.3 25.1 4.2 18 14.3 W 26 37 14 20 1009.3 1006.5 0.0
16/05:30pm 32.2 24.8 4.1 17 14.9 W 32 41 17 22 1009.1 1006.3 0.0
16/05:00pm 32.5 25.9 4.3 17 15.0 W 28 46 15 25 1008.7 1005.9 0.0
16/04:43pm 33.1 26.4 3.9 16 15.5 W 28 46 15 25 1008.7 1005.9 0.0
16/04:30pm 33.4 27.2 4.2 16 15.6 W 26 43 14 23 1008.7 1005.9 0.0
16/04:02pm 33.5 26.9 4.2 16 15.6 W 28 56 15 30 1008.7 1005.9 0.0
16/04:00pm 33.5 27.3 4.2 16 15.7 W 26 56 14 30 1008.5 1005.8 0.0
16/03:40pm 33.6 27.0 4.3 16 15.7 W 28 50 15 27 1008.5 1005.8 0.0
16/03:30pm 33.8 27.3 4.5 16 15.7 W 28 41 15 22 1008.8 1006.0 0.0
16/03:00pm 33.5 26.0 4.2 16 15.7 W 33 50 18 27 1008.9 1006.1 0.0
16/02:48pm 34.0 26.4 3.7 15 16.1 W 33 52 18 28 1008.9 1006.1 0.0
16/02:35pm 33.7 26.4 4.4 16 15.7 W 32 48 17 26 1009.2 1006.4 0.0
16/02:30pm 32.8 24.4 3.7 16 15.3 W 37 54 20 29 1009.3 1006.5 0.0
16/02:00pm 32.6 25.0 2.6 15 15.5 W 32 50 17 27 1009.6 1006.9 0.0
16/01:34pm 33.6 27.2 5.2 17 15.4 W 28 52 15 28 1009.9 1007.2 0.0
16/01:30pm 31.7 24.8 4.5 18 14.4 W 30 48 16 26 1010.1 1007.4 0.0
16/01:00pm 32.6 25.4 5.2 18 14.8 W 32 54 17 29 1010.4 1007.7 0.0
16/12:31pm 32.8 25.7 6.2 19 14.6 W 33 54 18 29 1010.6 1007.9 0.0
16/12:30pm 32.2 25.1 5.7 19 14.4 W 32 46 17 25 1010.7 1008.0 0.0
16/12:09pm 31.4 24.0 5.0 19 14.1 W 33 50 18 27 1011.0 1008.3 0.0
16/12:00pm 32.2 25.0 5.7 19 14.4 W 33 46 18 25 1011.3 1008.5 0.0
16/11:30am 31.4 24.9 6.5 21 13.6 WNW 30 54 16 29 1011.6 1008.9 0.0
16/11:21am 31.7 24.1 6.0 20 14.0 W 35 54 19 29 1011.7 1009.0 0.0
16/11:00am 31.2 24.1 6.3 21 13.6 WNW 33 43 18 23 1012.0 1009.3 0.0
16/10:30am 29.9 23.8 6.5 23 12.7 WNW 28 46 15 25 1012.4 1009.7 0.0
16/10:29am 30.2 24.1 6.8 23 12.8 WNW 28 46 15 25 1012.3 1009.6 0.0
16/10:00am 29.0 24.2 8.7 28 11.4 WNW 24 35 13 19 1012.8 1010.1 0.0
16/09:30am 27.5 24.1 10.7 35 9.7 WNW 19 28 10 15 1013.0 1010.3 0.0
16/09:00am 26.4 24.4 12.8 43 8.1 W 15 22 8 12 1013.3 1010.6 0.0
16/08:30am 25.1 23.3 13.3 48 7.0 WNW 15 22 8 12 1013.4 1010.7 0.0
16/08:00am 24.7 23.0 13.6 50 6.6 WNW 15 22 8 12 1013.4 1010.7 0.0
16/07:30am 23.7 21.6 14.7 57 5.4 W 19 26 10 14 1013.4 1010.7 0.0
16/07:00am 23.6 20.8 14.3 56 5.6 W 22 30 12 16 1013.2 1010.5 0.0
16/06:30am 23.1 19.7 11.2 47 6.8 W 20 28 11 15 1012.9 1010.2 0.0
16/06:00am 23.5 19.7 7.6 36 8.5 W 17 20 9 11 1012.3 1009.6 0.0
16/05:30am 23.8 20.5 6.6 33 9.1 W 13 17 7 9 1012.1 1009.4 0.0
16/05:00am 24.1 21.6 4.5 28 10.0 WSW 7 9 4 5 1011.6 1008.9 0.0
16/04:30am 24.2 21.1 3.5 26 10.3 WNW 9 13 5 7 1011.5 1008.7 0.0
16/04:00am 24.5 20.4 0.1 20 11.5 WNW 11 15 6 8 1011.3 1008.5 0.0
16/03:30am 25.0 19.8 -0.2 19 11.8 WNW 17 20 9 11 1010.9 1008.2 0.0
16/03:00am 25.4 19.6 -1.4 17 12.3 WNW 19 22 10 12 1010.7 1008.0 0.0
16/02:30am 25.9 19.6 -3.6 14 13.1 WNW 20 28 11 15 1010.6 1007.9 0.0
16/02:00am 26.3 19.5 -1.5 16 12.9 NW 24 30 13 16 1010.6 1007.9 0.0
16/01:30am 26.3 21.6 2.9 22 11.7 NW 17 20 9 11 1010.6 1007.9 0.0
16/01:00am 26.6 22.0 1.8 20 12.2 WNW 15 19 8 10 1010.8 1008.1 0.0
16/12:30am 26.9 22.0 2.1 20 12.3 NW 17 22 9 12 1011.3 1008.5 0.0
16/12:00am 27.1 22.2 2.2 20 12.4 NW 17 22 9 12 1011.4 1008.6 0.0
 
Date/Time
WST
Temp
°C
App
Temp
°C
Dew
Point
°C
Rel
Hum
%
Delta-T
°C
Wind Press
QNH
hPa
Press
MSL
hPa
Rain since
9am
mm
Dir  Spd
km/h
Gust
km/h
Spd
kts
Gust
kts
15/11:30pm 27.5 22.4 3.2 21 12.3 WNW 19 26 10 14 1011.6 1008.9 0.0
15/11:00pm 27.8 23.0 4.8 23 12.0 WNW 19 26 10 14 1011.8 1009.1 0.0
15/10:30pm 28.0 22.8 3.7 21 12.5 W 20 24 11 13 1011.7 1009.0 0.0
15/10:00pm 28.5 23.1 2.7 19 13.1 WNW 20 28 11 15 1012.1 1009.4 0.0
15/09:30pm 28.8 23.8 3.6 20 13.0 NW 19 30 10 16 1011.9 1009.2 0.0
15/09:00pm 28.9 24.8 4.4 21 12.8 NW 15 17 8 9 1011.8 1009.1 0.0
15/08:30pm 29.1 23.7 4.6 21 12.8 W 22 37 12 20 1011.5 1008.7 0.0
15/08:15pm 29.3 22.8 4.7 21 12.9 W 28 54 15 29 1011.0 1008.3 0.0
15/08:10pm 30.4 24.8 3.4 18 14.0 WNW 22 41 12 22 1011.3 1008.5 0.0
15/08:00pm 30.3 25.9 2.5 17 14.2 WNW 15 20 8 11 1010.6 1007.9 0.0
15/07:30pm 30.6 24.5 2.8 17 14.3 WNW 24 35 13 19 1010.4 1007.7 0.0
15/07:00pm 31.3 25.8 1.6 15 15.0 W 20 30 11 16 1009.9 1007.2 0.0
15/06:30pm 31.7 25.1 1.9 15 15.2 W 26 35 14 19 1009.5 1006.8 0.0
15/06:00pm 32.1 25.8 1.3 14 15.6 W 24 32 13 17 1009.1 1006.3 0.0
15/05:30pm 32.8 26.8 0.8 13 16.1 W 22 35 12 19 1008.9 1006.1 0.0
15/05:06pm 33.3 26.2 1.2 13 16.3 WNW 28 46 15 25 1008.8 1006.0 0.0
15/05:00pm 33.1 26.5 -0.1 12 16.5 WNW 24 32 13 17 1008.8 1006.0 0.0
15/04:30pm 33.7 25.5 0.4 12 16.7 W 33 44 18 24 1008.7 1005.9 0.0
15/04:07pm 34.0 26.8 0.6 12 16.9 WNW 28 50 15 27 1008.4 1005.7 0.0
15/04:00pm 33.5 26.2 0.2 12 16.7 WNW 28 41 15 22 1008.7 1005.9 0.0
15/03:30pm 33.7 25.7 0.4 12 16.7 WNW 32 44 17 24 1008.5 1005.8 0.0
15/03:00pm 35.7 28.9 0.7 11 17.9 WNW 26 39 14 21 1008.5 1005.8 0.0
15/02:30pm 34.3 26.2 -0.4 11 17.3 WNW 32 46 17 25 1008.8 1006.0 0.0
15/02:10pm 34.1 25.0 -0.5 11 17.2 WNW 37 52 20 28 1009.1 1006.3 0.0
15/02:07pm 34.2 24.7 -0.4 11 17.2 WNW 39 52 21 28 1009.1 1006.3 0.0
15/02:00pm 34.8 27.3 -1.3 10 17.8 NW 28 50 15 27 1009.2 1006.4 0.0
15/01:51pm 35.4 27.6 -0.8 10 18.0 WNW 30 46 16 25 1009.3 1006.5 0.0
15/01:30pm 33.8 25.5 -2.0 10 17.3 WNW 32 44 17 24 1009.6 1006.9 0.0
15/01:00pm 33.9 26.7 -2.0 10 17.4 NW 26 46 14 25 1009.9 1007.2 0.0
15/12:57pm 35.0 28.3 -1.1 10 17.8 NW 24 46 13 25 1009.9 1007.2 0.0
15/12:30pm 33.3 25.7 -2.4 10 17.1 NW 28 37 15 20 1010.5 1007.8 0.0
15/12:00pm 33.0 26.5 -2.6 10 17.0 NW 22 32 12 17 1010.9 1008.2 0.0
15/11:30am 32.1 24.7 -3.3 10 16.5 NW 26 39 14 21 1011.5 1008.7 0.0
15/11:00am 30.9 26.4 -3.0 11 15.8 N 11 24 6 13 1012.2 1009.5 0.0
15/10:30am 30.3 25.5 -2.2 12 15.3 NW 13 32 7 17 1012.7 1010.0 0.0
15/10:00am 30.6 25.9 -2.0 12 15.4 NNE 13 19 7 10 1013.1 1010.4 0.0
15/09:30am 28.3 23.7 -3.8 12 14.5 NE 11 20 6 11 1013.4 1010.7 0.0
15/09:00am 27.2 23.6 0.8 18 12.8 ENE 9 19 5 10 1013.7 1011.0 0.0
15/08:30am 25.1 22.3 5.3 28 10.3 NE 9 15 5 8 1013.8 1011.1 0.0

Other formats

Comma delimited format used in spreadsheet applications
http://www.bom.gov.au/fwo/IDW60801/IDW60801.94316.axf

JavaScript Object Notation format (JSON) in row-major order
http://www.bom.gov.au/fwo/IDW60801/IDW60801.94316.json

Data quality

Most of these data are generated automatically and are frequently updated. Quality checks on data are not normally performed. It is possible for incorrect values to appear. Refer to information at About Latest Weather Observations and please check the disclaimer before using these data.